Time;durP1;ratioP1;P1;durP2;ratioP2;P2;SDS_P1;SDS_P2;PMS_P1;PMS_P2;Temp;Humidity;BMP_temperature;BMP_pressure;BME280_temperature;BME280_humidity;BME280_pressure;Samples;Min_cycle;Max_cycle;Signal;HPM_P1;HPM_P2
2022/07/04 00:02:03;;;;;;;0.30;0.30;;;15.70;69.60;;;;;;6335564;22;20018;-74
2022/07/04 00:04:29;;;;;;;0.40;0.35;;;15.60;69.60;;;;;;6335717;22;20033;-73
2022/07/04 00:06:55;;;;;;;0.20;0.20;;;15.60;69.70;;;;;;6336238;22;20009;-73
2022/07/04 00:09:21;;;;;;;0.55;0.30;;;15.50;69.80;;;;;;6335731;22;20089;-74
2022/07/04 00:11:47;;;;;;;0.30;0.30;;;15.50;69.90;;;;;;6335692;22;20093;-74
2022/07/04 00:14:12;;;;;;;0.52;0.30;;;15.50;70.00;;;;;;6335583;22;20014;-74
2022/07/04 00:16:38;;;;;;;0.20;0.20;;;15.40;70.00;;;;;;6307515;22;20026;-73
2022/07/04 00:19:04;;;;;;;0.20;0.20;;;15.40;70.10;;;;;;6336391;22;20018;-74
2022/07/04 00:21:30;;;;;;;0.57;0.28;;;15.40;70.20;;;;;;6336186;22;20086;-73
2022/07/04 00:23:56;;;;;;;0.68;0.50;;;15.30;70.20;;;;;;6336023;22;20086;-73
2022/07/04 00:26:22;;;;;;;0.20;0.20;;;15.30;70.30;;;;;;6335475;22;20003;-73
2022/07/04 00:28:48;;;;;;;0.75;0.35;;;15.30;70.40;;;;;;6335255;22;20009;-73
2022/07/04 00:31:14;;;;;;;0.20;0.20;;;15.20;70.50;;;;;;6307748;22;20007;-73
2022/07/04 00:33:39;;;;;;;0.30;0.30;;;15.20;70.60;;;;;;6307431;22;20017;-73
2022/07/04 00:36:05;;;;;;;0.30;0.30;;;15.20;70.60;;;;;;6307994;22;20006;-73
2022/07/04 00:38:31;;;;;;;0.40;0.40;;;15.10;70.60;;;;;;6336791;22;20011;-73
2022/07/04 00:40:57;;;;;;;0.28;0.28;;;15.20;70.70;;;;;;6336390;22;19999;-74
2022/07/04 00:43:24;;;;;;;0.38;0.38;;;15.10;70.70;;;;;;6337188;22;20422;-74
2022/07/04 00:45:50;;;;;;;0.20;0.20;;;15.20;70.80;;;;;;6284047;22;20003;-74
2022/07/04 00:48:16;;;;;;;0.32;0.32;;;15.10;70.80;;;;;;6336483;22;20007;-74
2022/07/04 00:50:44;;;;;;;0.30;0.30;;;15.10;70.90;;;;;;6336737;22;20003;-74
2022/07/04 00:53:10;;;;;;;0.30;0.30;;;15.00;70.90;;;;;;6336523;22;20427;-74
2022/07/04 00:55:37;;;;;;;0.40;0.30;;;15.00;71.00;;;;;;6308940;22;20423;-74
2022/07/04 00:58:03;;;;;;;0.30;0.30;;;14.90;71.10;;;;;;6337066;22;20034;-73
2022/07/04 01:00:30;;;;;;;0.40;0.20;;;14.90;71.30;;;;;;6336101;22;20024;-73
2022/07/04 01:02:55;;;;;;;0.40;0.30;;;14.90;71.30;;;;;;6309010;22;20003;-74
2022/07/04 01:05:21;;;;;;;0.28;0.28;;;14.80;71.30;;;;;;6337126;22;20017;-74
2022/07/04 01:07:47;;;;;;;0.47;0.30;;;14.80;71.40;;;;;;6337124;22;20315;-74
2022/07/04 01:10:13;;;;;;;0.52;0.30;;;14.80;71.40;;;;;;6336446;22;20015;-74
2022/07/04 01:12:39;;;;;;;0.68;0.40;;;14.80;71.50;;;;;;6336417;22;20014;-74
2022/07/04 01:15:06;;;;;;;0.40;0.40;;;14.80;71.60;;;;;;6308627;22;21168;-74
2022/07/04 01:17:32;;;;;;;0.25;0.25;;;14.70;71.60;;;;;;6336202;22;20327;-74
2022/07/04 01:19:59;;;;;;;0.43;0.32;;;14.70;71.70;;;;;;6336798;22;19998;-74
2022/07/04 01:22:24;;;;;;;0.30;0.30;;;14.70;71.70;;;;;;6308587;22;20007;-74
2022/07/04 01:24:51;;;;;;;0.30;0.30;;;14.70;71.80;;;;;;6309382;22;20064;-74
2022/07/04 01:27:18;;;;;;;0.40;0.40;;;14.60;71.80;;;;;;6336983;22;20006;-74
2022/07/04 01:29:44;;;;;;;0.28;0.28;;;14.60;71.90;;;;;;6336647;22;20384;-74
2022/07/04 01:32:10;;;;;;;0.30;0.30;;;14.60;72.00;;;;;;6337021;22;20059;-74
2022/07/04 01:34:38;;;;;;;0.30;0.30;;;14.50;72.10;;;;;;6337048;22;20046;-74
2022/07/04 01:37:04;;;;;;;0.20;0.20;;;14.50;72.10;;;;;;6336418;22;20006;-74
2022/07/04 01:39:30;;;;;;;0.22;0.22;;;14.50;72.20;;;;;;6336873;22;19999;-74
2022/07/04 01:41:56;;;;;;;0.30;0.30;;;14.50;72.20;;;;;;6336153;22;19995;-74
2022/07/04 01:44:22;;;;;;;0.30;0.30;;;14.50;72.30;;;;;;6336506;22;20087;-75
2022/07/04 01:46:47;;;;;;;0.28;0.28;;;14.40;72.20;;;;;;6308855;22;20423;-74
2022/07/04 01:49:13;;;;;;;0.40;0.40;;;14.40;72.40;;;;;;6336632;22;20063;-74
2022/07/04 01:51:48;;;;;;;0.22;0.22;;;14.50;72.50;;;;;;6308297;22;20012;-74
2022/07/04 01:54:13;;;;;;;0.20;0.20;;;14.40;72.50;;;;;;6335861;22;20010;-74
2022/07/04 01:56:40;;;;;;;0.30;0.30;;;14.40;72.50;;;;;;6336292;22;20067;-74
2022/07/04 01:59:06;;;;;;;0.30;0.30;;;14.40;72.50;;;;;;6309495;22;19999;-74
2022/07/04 02:01:32;;;;;;;0.28;0.28;;;14.40;72.60;;;;;;6336836;22;20044;-74
2022/07/04 02:04:01;;;;;;;0.30;0.30;;;14.40;72.50;;;;;;6336099;22;20049;-74
2022/07/04 02:06:28;;;;;;;0.50;0.50;;;14.30;72.50;;;;;;6336746;22;20003;-74
2022/07/04 02:13:00;;;;;;;0.20;0.20;;;14.40;72.70;;;;;;6336238;22;20041;-74
2022/07/04 02:14:16;;;;;;;0.40;0.40;;;14.30;72.70;;;;;;6310875;22;20098;-74
2022/07/04 02:16:42;;;;;;;0.30;0.30;;;14.30;72.80;;;;;;6336538;22;20030;-74
2022/07/04 02:19:08;;;;;;;0.30;0.30;;;14.30;72.80;;;;;;6309779;22;20515;-74
2022/07/04 02:21:34;;;;;;;0.30;0.30;;;14.20;72.80;;;;;;6336132;22;20007;-74
2022/07/04 02:23:59;;;;;;;1.08;0.40;;;14.30;72.90;;;;;;6308552;22;20002;-73
2022/07/04 02:26:25;;;;;;;0.68;0.45;;;14.30;73.00;;;;;;6336420;22;20002;-74
2022/07/04 02:28:52;;;;;;;0.30;0.30;;;14.30;73.00;;;;;;6308156;22;20068;-74
2022/07/04 02:31:18;;;;;;;0.43;0.43;;;14.20;73.00;;;;;;6336194;22;19999;-74
2022/07/04 02:33:43;;;;;;;0.55;0.40;;;14.20;73.10;;;;;;6336227;22;20068;-74
2022/07/04 02:36:09;;;;;;;0.30;0.30;;;14.20;73.20;;;;;;6336301;22;19999;-74
2022/07/04 02:38:35;;;;;;;0.65;0.57;;;14.20;73.30;;;;;;6336380;22;19994;-74
2022/07/04 02:41:01;;;;;;;0.65;0.43;;;14.20;73.40;;;;;;6308624;22;19998;-74
2022/07/04 02:43:26;;;;;;;0.30;0.30;;;14.10;73.40;;;;;;6335915;22;20465;-74
2022/07/04 02:45:53;;;;;;;0.52;0.47;;;14.10;73.60;;;;;;6308204;22;20030;-74
2022/07/04 02:48:19;;;;;;;0.60;0.60;;;14.10;73.50;;;;;;6335868;22;20415;-74
2022/07/04 02:50:44;;;;;;;0.50;0.40;;;14.10;73.50;;;;;;6305900;22;19999;-74
2022/07/04 02:53:10;;;;;;;0.47;0.47;;;14.10;73.60;;;;;;6308451;22;20490;-74
2022/07/04 02:55:36;;;;;;;0.50;0.50;;;14.10;74.30;;;;;;6335926;22;20030;-74
2022/07/04 02:58:01;;;;;;;0.50;0.50;;;14.00;73.70;;;;;;6336079;22;20454;-74
2022/07/04 03:00:27;;;;;;;0.43;0.40;;;14.00;73.70;;;;;;6336025;22;20418;-74
2022/07/04 03:02:54;;;;;;;0.65;0.38;;;14.00;73.70;;;;;;6335899;22;20038;-74
2022/07/04 03:05:20;;;;;;;1.13;0.50;;;14.00;73.80;;;;;;6335755;22;20338;-74
2022/07/04 03:07:46;;;;;;;0.65;0.40;;;14.00;73.90;;;;;;6336273;22;20093;-74
2022/07/04 03:10:12;;;;;;;0.55;0.45;;;14.00;74.00;;;;;;6335989;22;20006;-74
2022/07/04 03:12:37;;;;;;;0.47;0.47;;;14.00;74.10;;;;;;6335731;22;20060;-74
2022/07/04 03:15:06;;;;;;;0.50;0.50;;;14.00;74.10;;;;;;6335750;22;20010;-74
2022/07/04 03:17:32;;;;;;;0.40;0.40;;;13.90;74.10;;;;;;6335484;22;20082;-74
2022/07/04 03:19:58;;;;;;;0.50;0.50;;;13.90;74.10;;;;;;6336351;22;20033;-74
2022/07/04 03:22:23;;;;;;;0.85;0.50;;;13.90;74.10;;;;;;6282719;22;20423;-74
2022/07/04 03:24:49;;;;;;;0.50;0.50;;;13.90;74.30;;;;;;6308379;22;20454;-74
2022/07/04 03:27:15;;;;;;;0.70;0.47;;;13.90;74.30;;;;;;6335795;22;20021;-75
2022/07/04 03:29:41;;;;;;;0.40;0.40;;;13.80;74.30;;;;;;6336413;22;20003;-74
2022/07/04 03:32:07;;;;;;;0.40;0.40;;;13.80;74.30;;;;;;6308160;22;19995;-74
2022/07/04 03:34:33;;;;;;;0.70;0.70;;;13.80;74.40;;;;;;6307587;22;20015;-74
2022/07/04 03:36:59;;;;;;;0.82;0.50;;;13.80;74.50;;;;;;6335482;22;20312;-74
2022/07/04 03:39:25;;;;;;;0.55;0.50;;;13.80;74.50;;;;;;6336643;22;20060;-74
2022/07/04 03:41:50;;;;;;;0.40;0.40;;;13.80;74.50;;;;;;6336318;22;20048;-74
2022/07/04 03:44:16;;;;;;;0.50;0.50;;;13.80;74.60;;;;;;6335633;22;20010;-74
2022/07/04 03:46:42;;;;;;;0.40;0.40;;;13.80;74.60;;;;;;6308624;22;20006;-74
2022/07/04 03:49:07;;;;;;;0.50;0.50;;;13.80;74.60;;;;;;6306539;22;20007;-74
2022/07/04 03:51:34;;;;;;;0.52;0.52;;;13.80;74.60;;;;;;6335726;22;19999;-74
2022/07/04 03:53:59;;;;;;;0.50;0.50;;;13.80;74.60;;;;;;6335792;22;20064;-74
2022/07/04 03:56:25;;;;;;;0.40;0.40;;;13.80;74.60;;;;;;6335992;22;20011;-74
2022/07/04 03:58:51;;;;;;;0.40;0.40;;;13.80;74.70;;;;;;6335497;22;20503;-74
2022/07/04 04:01:18;;;;;;;0.40;0.40;;;13.90;74.70;;;;;;6308495;22;20082;-74
2022/07/04 04:06:25;;;;;;;0.47;0.47;;;13.90;74.70;;;;;;6335773;22;20353;-74
2022/07/04 04:08:51;;;;;;;0.50;0.50;;;14.00;74.70;;;;;;6336600;22;20014;-75
2022/07/04 04:11:17;;;;;;;0.60;0.50;;;14.00;74.70;;;;;;6336021;22;20352;-75
2022/07/04 04:13:43;;;;;;;0.40;0.40;;;14.00;74.70;;;;;;6335616;22;20007;-75
2022/07/04 04:16:09;;;;;;;0.50;0.50;;;13.90;74.60;;;;;;6307524;22;20002;-75
2022/07/04 04:18:35;;;;;;;0.88;0.50;;;14.00;74.60;;;;;;6335498;22;19994;-75
2022/07/04 04:21:00;;;;;;;0.40;0.40;;;14.10;74.60;;;;;;6335613;22;20030;-75
2022/07/04 04:23:26;;;;;;;0.70;0.60;;;14.00;74.60;;;;;;6335851;22;19999;-75
2022/07/04 04:25:52;;;;;;;0.40;0.40;;;14.10;74.60;;;;;;6308468;22;20147;-75
2022/07/04 04:28:18;;;;;;;0.70;0.70;;;14.10;74.60;;;;;;6307918;22;20021;-75
2022/07/04 04:30:43;;;;;;;0.70;0.50;;;14.10;74.70;;;;;;6336070;22;20003;-75
2022/07/04 04:33:09;;;;;;;0.50;0.50;;;14.20;74.70;;;;;;6307372;22;20017;-75
2022/07/04 04:35:35;;;;;;;0.45;0.43;;;14.20;74.70;;;;;;6336043;22;20003;-75
2022/07/04 04:38:01;;;;;;;1.70;0.50;;;14.20;74.70;;;;;;6307953;22;19995;-75
2022/07/04 04:40:26;;;;;;;0.40;0.40;;;14.30;74.60;;;;;;6306538;22;19999;-75
2022/07/04 04:42:52;;;;;;;0.40;0.40;;;14.40;74.60;;;;;;6307858;22;20331;-75
2022/07/04 04:45:18;;;;;;;0.40;0.40;;;14.40;74.50;;;;;;6307873;22;20362;-75
2022/07/04 04:47:43;;;;;;;0.85;0.30;;;14.50;74.50;;;;;;6308743;22;20005;-75
2022/07/04 04:50:11;;;;;;;0.40;0.40;;;14.50;74.40;;;;;;6335316;22;20007;-75
2022/07/04 04:52:38;;;;;;;0.30;0.30;;;14.50;74.40;;;;;;6335785;22;20030;-75
2022/07/04 04:55:04;;;;;;;1.05;0.60;;;14.60;74.40;;;;;;6307494;22;20030;-75
2022/07/04 04:57:30;;;;;;;0.50;0.50;;;14.60;74.40;;;;;;6335698;22;20002;-75
2022/07/04 04:59:56;;;;;;;0.30;0.30;;;14.70;74.30;;;;;;6307649;22;20577;-75
2022/07/04 05:02:22;;;;;;;0.50;0.50;;;14.70;74.30;;;;;;6335898;22;20002;-75
2022/07/04 05:04:47;;;;;;;0.40;0.40;;;14.70;74.20;;;;;;6335477;22;20049;-75
2022/07/04 05:07:13;;;;;;;0.85;0.40;;;14.80;74.20;;;;;;6335115;22;20415;-75
2022/07/04 05:09:39;;;;;;;0.45;0.43;;;14.80;74.10;;;;;;6335040;22;20044;-75
2022/07/04 05:12:05;;;;;;;0.50;0.50;;;14.90;74.20;;;;;;6307748;22;20002;-75
2022/07/04 05:14:31;;;;;;;1.13;0.60;;;15.00;74.10;;;;;;6335314;22;20007;-75
2022/07/04 05:16:56;;;;;;;0.38;0.38;;;15.10;74.20;;;;;;6307453;22;20007;-75
2022/07/04 05:19:22;;;;;;;1.05;0.60;;;15.10;74.10;;;;;;6308304;22;20003;-76
2022/07/04 05:21:48;;;;;;;1.40;0.63;;;15.20;74.00;;;;;;6307200;22;20366;-75
2022/07/04 05:24:13;;;;;;;0.47;0.40;;;15.40;74.60;;;;;;6336239;22;20007;-75
2022/07/04 05:26:39;;;;;;;0.77;0.40;;;15.40;73.70;;;;;;6336537;22;19999;-75
2022/07/04 05:29:05;;;;;;;0.80;0.50;;;15.60;73.60;;;;;;6336853;22;20003;-76
2022/07/04 05:31:31;;;;;;;0.57;0.55;;;15.60;73.40;;;;;;6337434;22;20319;-75
2022/07/04 05:33:58;;;;;;;0.63;0.63;;;15.70;73.30;;;;;;6336152;22;20011;-75
2022/07/04 05:36:24;;;;;;;0.50;0.50;;;15.90;73.40;;;;;;6307829;22;20089;-75
2022/07/04 05:38:49;;;;;;;0.60;0.60;;;15.90;73.40;;;;;;6336659;22;20022;-75
2022/07/04 05:41:16;;;;;;;0.60;0.40;;;16.00;73.30;;;;;;6336729;22;20152;-75
2022/07/04 05:43:41;;;;;;;0.60;0.60;;;16.10;73.20;;;;;;6309353;22;20003;-75
2022/07/04 05:46:08;;;;;;;0.68;0.50;;;16.20;73.20;;;;;;6336539;22;20023;-76
2022/07/04 05:48:34;;;;;;;1.20;0.50;;;16.20;73.20;;;;;;6336812;22;20010;-75
2022/07/04 05:51:00;;;;;;;1.60;0.70;;;16.40;73.10;;;;;;6309172;22;20423;-76
2022/07/04 05:53:26;;;;;;;0.63;0.63;;;16.50;73.00;;;;;;6308908;22;20060;-76
2022/07/04 05:55:51;;;;;;;1.45;0.55;;;16.50;72.90;;;;;;6307829;22;20370;-76
2022/07/04 05:58:17;;;;;;;2.58;1.00;;;16.60;72.90;;;;;;6308366;22;20007;-76
2022/07/04 06:00:43;;;;;;;0.85;0.52;;;16.60;73.00;;;;;;6282766;22;19999;-76
2022/07/04 06:03:09;;;;;;;1.38;0.70;;;16.60;72.90;;;;;;6336655;22;20327;-75
2022/07/04 06:05:35;;;;;;;0.50;0.50;;;16.70;73.20;;;;;;6336441;22;20077;-75
2022/07/04 06:08:01;;;;;;;0.88;0.50;;;16.70;73.20;;;;;;6336881;22;20074;-75
2022/07/04 06:10:27;;;;;;;0.82;0.52;;;16.80;73.10;;;;;;6336419;22;20007;-76
2022/07/04 06:12:53;;;;;;;0.77;0.60;;;16.80;73.10;;;;;;6336536;22;20011;-75
2022/07/04 06:15:19;;;;;;;0.63;0.60;;;16.90;73.10;;;;;;6308871;22;20419;-75
2022/07/04 06:17:45;;;;;;;0.52;0.43;;;16.90;73.10;;;;;;6336254;22;20006;-75
2022/07/04 06:20:11;;;;;;;0.50;0.50;;;17.00;73.10;;;;;;6308662;22;20078;-75
2022/07/04 06:22:47;;;;;;;1.90;0.60;;;17.10;73.10;;;;;;6336790;22;20415;-75
2022/07/04 06:25:16;;;;;;;0.73;0.60;;;17.10;72.80;;;;;;6336857;22;21409;-75
2022/07/04 06:27:42;;;;;;;1.13;0.50;;;17.10;73.00;;;;;;6336966;22;20018;-75
2022/07/04 06:30:09;;;;;;;1.00;0.70;;;17.20;73.00;;;;;;6338339;22;20005;-75
2022/07/04 06:32:46;;;;;;;1.17;0.77;;;17.30;73.10;;;;;;6313689;22;20660;-75
2022/07/04 06:37:50;;;;;;;0.57;0.57;;;17.40;72.70;;;;;;6347991;22;20023;-75
2022/07/04 06:40:16;;;;;;;1.33;0.80;;;17.40;72.60;;;;;;6350120;22;20011;-75
2022/07/04 06:42:41;;;;;;;0.80;0.65;;;17.40;72.50;;;;;;6350252;22;20377;-75
2022/07/04 06:45:08;;;;;;;0.60;0.60;;;17.50;72.50;;;;;;6350149;22;20017;-75
2022/07/04 06:47:33;;;;;;;0.75;0.75;;;17.60;72.50;;;;;;6347878;22;20058;-74
2022/07/04 06:49:59;;;;;;;0.65;0.65;;;17.50;72.40;;;;;;6316328;22;20002;-73
2022/07/04 06:52:32;;;;;;;0.70;0.70;;;17.50;72.40;;;;;;6335894;22;20506;-73
2022/07/04 06:55:08;;;;;;;1.90;0.70;;;17.50;72.50;;;;;;6244649;22;20039;-73
2022/07/04 07:00:31;;;;;;;0.47;0.47;;;17.60;72.60;;;;;;6249981;22;20534;-73
2022/07/04 07:02:58;;;;;;;0.50;0.50;;;17.70;72.50;;;;;;6210546;23;20083;-72
2022/07/04 07:05:29;;;;;;;0.88;0.73;;;17.80;72.40;;;;;;6210155;23;20013;-74
2022/07/04 07:07:54;;;;;;;1.40;0.63;;;17.90;72.30;;;;;;6210358;23;20079;-72
2022/07/04 07:10:21;;;;;;;0.43;0.40;;;17.90;72.20;;;;;;6210745;23;20051;-73
2022/07/04 07:12:47;;;;;;;0.45;0.45;;;18.00;72.10;;;;;;6210301;23;20107;-73
2022/07/04 07:15:42;;;;;;;0.70;0.70;;;18.10;72.10;;;;;;6210273;23;20078;-72
2022/07/04 07:18:20;;;;;;;0.70;0.68;;;18.20;72.00;;;;;;6134003;23;20008;-73
2022/07/04 07:20:46;;;;;;;0.52;0.52;;;18.30;71.90;;;;;;6210512;23;20067;-73
2022/07/04 07:23:12;;;;;;;0.70;0.70;;;18.40;71.70;;;;;;6210704;23;20025;-73
2022/07/04 07:25:37;;;;;;;0.80;0.55;;;18.40;71.60;;;;;;6185071;23;20013;-72
2022/07/04 07:28:03;;;;;;;0.60;0.60;;;18.40;71.80;;;;;;6193691;23;20020;-73
2022/07/04 07:30:29;;;;;;;2.30;1.00;;;18.40;71.90;;;;;;6241273;22;20058;-74
2022/07/04 07:32:55;;;;;;;1.10;0.88;;;18.50;72.00;;;;;;6161689;22;20060;-72
2022/07/04 07:35:21;;;;;;;1.25;0.90;;;18.50;72.10;;;;;;6272152;22;20008;-72
2022/07/04 07:37:47;;;;;;;0.60;0.60;;;18.50;72.00;;;;;;6271949;22;20019;-72
2022/07/04 07:40:13;;;;;;;0.88;0.80;;;18.70;71.90;;;;;;6245689;22;20249;-72
2022/07/04 07:42:38;;;;;;;1.63;1.10;;;18.90;71.80;;;;;;6245672;22;20004;-72
2022/07/04 07:45:05;;;;;;;1.23;1.10;;;19.20;71.20;;;;;;6243220;22;20000;-73
2022/07/04 07:47:31;;;;;;;0.93;0.80;;;19.40;70.80;;;;;;6270508;22;20428;-72
2022/07/04 07:49:56;;;;;;;1.67;0.88;;;19.40;70.50;;;;;;6244378;22;20020;-72
2022/07/04 07:52:22;;;;;;;2.30;1.05;;;19.50;70.40;;;;;;6271754;22;20062;-72
2022/07/04 07:54:48;;;;;;;1.58;1.02;;;19.60;70.30;;;;;;6271368;22;20011;-72
2022/07/04 07:57:14;;;;;;;1.52;1.02;;;19.60;70.40;;;;;;6246354;22;20008;-74
2022/07/04 07:59:40;;;;;;;1.70;0.93;;;19.70;70.40;;;;;;6220864;22;20169;-74
2022/07/04 08:02:06;;;;;;;1.95;1.10;;;19.80;70.60;;;;;;6221359;22;19995;-73
2022/07/04 08:04:35;;;;;;;1.15;0.90;;;20.00;70.40;;;;;;6317646;22;20013;-74
2022/07/04 08:07:05;;;;;;;2.05;1.02;;;20.20;70.40;;;;;;6283556;22;20010;-73
2022/07/04 08:09:31;;;;;;;2.22;1.23;;;20.40;70.20;;;;;;6335924;22;20003;-74
2022/07/04 08:11:58;;;;;;;1.30;0.90;;;20.40;69.90;;;;;;6306135;22;20011;-72
2022/07/04 08:14:24;;;;;;;1.20;0.98;;;20.70;69.80;;;;;;6336265;22;20007;-73
2022/07/04 08:16:49;;;;;;;1.70;1.00;;;20.60;69.70;;;;;;6335542;22;19998;-72
2022/07/04 08:19:15;;;;;;;0.95;0.80;;;20.70;70.10;;;;;;6335676;22;20060;-73
2022/07/04 08:21:41;;;;;;;1.40;1.10;;;20.60;70.30;;;;;;6282255;22;20033;-72
2022/07/04 08:24:07;;;;;;;1.58;0.95;;;20.80;70.20;;;;;;6209439;23;20421;-72
2022/07/04 08:26:33;;;;;;;1.95;1.38;;;20.80;70.00;;;;;;6159718;23;20137;-72
2022/07/04 08:28:59;;;;;;;1.85;1.08;;;20.90;70.10;;;;;;6184690;23;20441;-73
2022/07/04 08:31:27;;;;;;;2.20;1.02;;;20.90;70.30;;;;;;6159712;23;20096;-71
2022/07/04 08:33:52;;;;;;;1.58;1.00;;;20.90;70.40;;;;;;6159628;23;20140;-72
2022/07/04 08:36:18;;;;;;;1.35;1.10;;;20.90;70.40;;;;;;6159668;23;20020;-72
2022/07/04 08:38:44;;;;;;;1.08;0.98;;;20.90;70.50;;;;;;6160053;23;20005;-74
2022/07/04 08:41:10;;;;;;;3.13;1.08;;;21.00;70.40;;;;;;6160349;23;20005;-73
2022/07/04 08:43:37;;;;;;;1.48;0.85;;;21.20;70.30;;;;;;6159340;23;20071;-73
2022/07/04 08:46:04;;;;;;;1.08;0.80;;;21.30;70.00;;;;;;6184610;23;20054;-73
2022/07/04 08:48:34;;;;;;;1.00;0.80;;;21.30;69.80;;;;;;6209278;23;20051;-74
2022/07/04 08:51:15;;;;;;;0.80;0.80;;;21.50;69.80;;;;;;6184235;23;20032;-72
2022/07/04 08:53:50;;;;;;;0.80;0.80;;;21.40;69.80;;;;;;6183829;23;20008;-74
2022/07/04 08:58:59;;;;;;;1.35;0.80;;;21.40;70.30;;;;;;6335974;22;20011;-72
2022/07/04 09:01:26;;;;;;;0.60;0.60;;;21.40;70.20;;;;;;6308413;22;20006;-72
2022/07/04 09:07:39;;;;;;;1.85;0.88;;;21.40;70.50;;;;;;6180692;23;20070;-73
2022/07/04 09:10:06;;;;;;;1.95;0.70;;;21.40;70.70;;;;;;6181816;23;20001;-72
2022/07/04 09:12:32;;;;;;;0.98;0.88;;;21.20;70.80;;;;;;6156029;23;20006;-72
2022/07/04 09:14:59;;;;;;;0.80;0.70;;;21.30;70.80;;;;;;6180730;23;20072;-73
2022/07/04 09:17:25;;;;;;;1.50;0.85;;;21.30;70.60;;;;;;6181279;23;20330;-73
2022/07/04 09:20:14;;;;;;;0.70;0.70;;;21.30;70.70;;;;;;6180985;23;20008;-72
2022/07/04 09:22:39;;;;;;;0.90;0.75;;;21.30;70.90;;;;;;6178681;23;20072;-73
2022/07/04 09:25:06;;;;;;;1.48;0.80;;;21.60;70.40;;;;;;6131390;23;20013;-72
2022/07/04 09:27:35;;;;;;;1.13;0.70;;;22.00;69.60;;;;;;6156036;23;20139;-72
2022/07/04 09:30:03;;;;;;;1.77;0.80;;;22.20;69.10;;;;;;6154596;23;20132;-72
2022/07/04 09:32:50;;;;;;;1.83;1.20;;;22.40;68.50;;;;;;6156517;23;20290;-72
2022/07/04 09:35:21;;;;;;;0.85;0.80;;;22.50;68.10;;;;;;6179859;23;20009;-72
2022/07/04 09:37:49;;;;;;;1.55;0.90;;;22.60;68.10;;;;;;6152954;23;20009;-73
2022/07/04 09:40:32;;;;;;;1.23;1.00;;;22.90;67.70;;;;;;6180639;23;20001;-72
2022/07/04 09:43:01;;;;;;;1.52;0.88;;;23.00;67.10;;;;;;6163073;22;20013;-72
2022/07/04 09:45:31;;;;;;;1.83;1.00;;;23.00;67.00;;;;;;6336954;22;20042;-72
2022/07/04 09:47:59;;;;;;;1.20;1.00;;;23.00;67.20;;;;;;6282996;22;20026;-72
2022/07/04 09:50:28;;;;;;;1.10;1.00;;;23.20;67.00;;;;;;6241535;23;20046;-71
2022/07/04 09:52:56;;;;;;;1.52;1.05;;;23.20;66.90;;;;;;6241648;23;20019;-72
2022/07/04 09:55:25;;;;;;;1.10;1.00;;;23.40;66.80;;;;;;6241219;23;20078;-72
2022/07/04 09:57:52;;;;;;;1.20;0.80;;;23.40;66.40;;;;;;6241795;23;20008;-72
2022/07/04 10:00:26;;;;;;;1.45;0.85;;;23.40;66.60;;;;;;6241538;23;20008;-71
2022/07/04 10:02:54;;;;;;;0.70;0.70;;;23.50;66.40;;;;;;6217042;23;20004;-72
2022/07/04 10:05:24;;;;;;;1.05;0.60;;;23.50;66.70;;;;;;6215912;23;20019;-72
2022/07/04 10:07:50;;;;;;;1.20;0.60;;;23.30;66.40;;;;;;6191263;23;20008;-71
2022/07/04 10:10:29;;;;;;;1.65;0.75;;;23.00;67.10;;;;;;6215776;23;20016;-71
2022/07/04 10:12:59;;;;;;;0.93;0.73;;;23.00;67.20;;;;;;6190429;23;20020;-71
2022/07/04 10:15:25;;;;;;;0.60;0.60;;;23.00;67.20;;;;;;6241052;23;20012;-72
2022/07/04 10:17:51;;;;;;;0.57;0.52;;;23.00;67.40;;;;;;6243296;22;20103;-71
2022/07/04 10:20:16;;;;;;;0.57;0.57;;;22.90;67.10;;;;;;6196843;22;20051;-72
2022/07/04 10:22:42;;;;;;;0.80;0.70;;;23.10;67.10;;;;;;6305759;22;19999;-73
2022/07/04 10:25:09;;;;;;;0.82;0.50;;;23.20;66.70;;;;;;6284946;22;20319;-73
2022/07/04 10:27:36;;;;;;;1.10;0.63;;;23.20;66.40;;;;;;6308946;22;20032;-74
2022/07/04 10:30:05;;;;;;;0.60;0.60;;;23.20;66.40;;;;;;6309653;22;19999;-75
2022/07/04 10:32:32;;;;;;;1.27;0.80;;;23.20;66.40;;;;;;6309992;22;20134;-74
2022/07/04 10:34:58;;;;;;;0.57;0.57;;;23.10;66.50;;;;;;6336757;22;20018;-74
2022/07/04 10:37:24;;;;;;;0.50;0.50;;;23.10;67.30;;;;;;6309326;22;20078;-75
2022/07/04 10:39:50;;;;;;;0.85;0.60;;;23.00;66.70;;;;;;6336471;22;20002;-74
2022/07/04 10:42:24;;;;;;;0.50;0.50;;;23.00;66.90;;;;;;6336779;22;20323;-74
2022/07/04 10:44:50;;;;;;;0.77;0.60;;;22.80;67.00;;;;;;6309177;22;20026;-74
2022/07/04 10:47:27;;;;;;;0.60;0.60;;;22.80;67.10;;;;;;6309275;22;20006;-74
2022/07/04 10:49:52;;;;;;;0.90;0.60;;;22.60;67.20;;;;;;6337147;22;20307;-73
2022/07/04 10:52:18;;;;;;;1.50;0.60;;;22.50;67.60;;;;;;6336908;22;20026;-73
2022/07/04 10:54:45;;;;;;;0.68;0.68;;;22.40;67.70;;;;;;6336053;22;20009;-73
2022/07/04 10:57:17;;;;;;;1.58;0.50;;;22.30;67.70;;;;;;6336619;22;20384;-73
2022/07/04 10:59:57;;;;;;;0.80;0.52;;;22.50;67.50;;;;;;6309054;22;20052;-73
2022/07/04 11:02:26;;;;;;;0.97;0.80;;;22.70;67.00;;;;;;6337541;22;20003;-74
2022/07/04 11:05:05;;;;;;;0.93;0.57;;;22.90;66.30;;;;;;6336661;22;20312;-74
2022/07/04 11:07:57;;;;;;;0.40;0.40;;;23.10;65.60;;;;;;6336129;22;20009;-74
2022/07/04 11:10:23;;;;;;;1.00;0.60;;;23.40;64.90;;;;;;6315300;22;20023;-74
2022/07/04 11:13:13;;;;;;;0.60;0.60;;;23.60;64.70;;;;;;6308193;22;20048;-75
2022/07/04 11:16:00;;;;;;;0.45;0.45;;;23.80;63.80;;;;;;6336660;22;20056;-74
2022/07/04 11:18:28;;;;;;;0.55;0.55;;;24.00;63.40;;;;;;6314935;22;19999;-74
2022/07/04 11:20:53;;;;;;;0.60;0.60;;;24.10;63.40;;;;;;6336706;22;20442;-74
2022/07/04 11:23:20;;;;;;;0.70;0.60;;;24.10;63.10;;;;;;6335838;22;20014;-73
2022/07/04 11:25:48;;;;;;;0.90;0.70;;;24.00;63.00;;;;;;6336416;22;20332;-73
2022/07/04 11:28:22;;;;;;;1.20;0.55;;;24.00;63.30;;;;;;6336466;22;19998;-73
2022/07/04 11:30:57;;;;;;;0.55;0.50;;;24.00;63.20;;;;;;6346310;22;20461;-74
2022/07/04 11:33:26;;;;;;;0.40;0.40;;;24.10;63.10;;;;;;6307853;22;20026;-73
2022/07/04 11:36:09;;;;;;;1.15;0.60;;;24.30;62.80;;;;;;6308658;22;20015;-73
2022/07/04 11:38:50;;;;;;;1.42;0.60;;;24.40;62.40;;;;;;6308377;22;20368;-74
2022/07/04 11:46:35;;;;;;;0.60;0.57;;;24.70;61.40;;;;;;6333081;22;20082;-72
2022/07/04 11:49:10;;;;;;;0.60;0.60;;;24.40;62.00;;;;;;6306414;22;20034;-73
2022/07/04 11:51:43;;;;;;;0.50;0.50;;;24.20;62.20;;;;;;6336512;22;19998;-72
2022/07/04 11:54:09;;;;;;;0.65;0.50;;;24.10;62.30;;;;;;6336033;22;20019;-73
2022/07/04 11:56:35;;;;;;;2.50;0.88;;;24.00;62.10;;;;;;6335858;22;19999;-72
2022/07/04 11:59:11;;;;;;;0.50;0.50;;;24.00;62.40;;;;;;6305647;22;20023;-72
2022/07/04 12:01:37;;;;;;;0.50;0.50;;;23.80;62.30;;;;;;6336000;22;20078;-73
2022/07/04 12:04:20;;;;;;;0.57;0.57;;;23.80;62.40;;;;;;6336233;22;20372;-73
2022/07/04 12:06:48;;;;;;;0.63;0.43;;;23.90;62.10;;;;;;6308667;22;20026;-72
2022/07/04 12:09:16;;;;;;;1.98;0.60;;;24.10;62.10;;;;;;6308464;22;20034;-72
2022/07/04 12:11:54;;;;;;;1.27;0.52;;;24.20;61.70;;;;;;6335816;22;20014;-73
2022/07/04 12:14:20;;;;;;;0.40;0.40;;;24.20;61.50;;;;;;6336821;22;20430;-74
2022/07/04 12:16:47;;;;;;;0.88;0.70;;;24.30;61.30;;;;;;6335500;22;20052;-73
2022/07/04 12:19:13;;;;;;;1.05;0.63;;;24.20;61.10;;;;;;6336672;22;20010;-73
2022/07/04 12:21:39;;;;;;;0.93;0.60;;;24.10;61.10;;;;;;6335564;22;19995;-74
2022/07/04 12:24:05;;;;;;;0.82;0.55;;;24.00;61.40;;;;;;6336245;22;20060;-73
2022/07/04 12:26:31;;;;;;;1.30;0.55;;;24.00;61.50;;;;;;6336888;22;20007;-72
2022/07/04 12:28:57;;;;;;;0.82;0.70;;;23.90;61.60;;;;;;6307456;22;20578;-73
2022/07/04 12:31:37;;;;;;;0.57;0.52;;;23.80;61.70;;;;;;6336251;22;20079;-73
2022/07/04 12:34:03;;;;;;;0.57;0.50;;;23.80;61.80;;;;;;6309621;22;20010;-72
2022/07/04 12:36:29;;;;;;;1.90;0.57;;;23.70;61.70;;;;;;6336873;22;20006;-73
2022/07/04 12:38:56;;;;;;;1.15;0.70;;;23.70;61.80;;;;;;6309512;22;20022;-72
2022/07/04 12:41:30;;;;;;;0.65;0.50;;;23.80;61.90;;;;;;6337044;22;20055;-71
2022/07/04 12:43:57;;;;;;;0.70;0.50;;;23.90;61.50;;;;;;6337091;22;20052;-72
2022/07/04 12:46:30;;;;;;;0.50;0.50;;;23.90;61.20;;;;;;6337235;22;20014;-72
2022/07/04 12:48:57;;;;;;;2.53;0.70;;;23.80;61.20;;;;;;6337076;22;20300;-73
2022/07/04 12:51:25;;;;;;;0.60;0.60;;;23.70;61.20;;;;;;6280845;22;20011;-73
2022/07/04 12:53:53;;;;;;;1.40;0.50;;;23.90;61.30;;;;;;6281428;22;20038;-72
2022/07/04 12:56:36;;;;;;;0.40;0.40;;;23.80;61.00;;;;;;6336468;22;19999;-72
2022/07/04 12:59:08;;;;;;;0.40;0.40;;;23.90;60.60;;;;;;6309536;22;20006;-74
2022/07/04 13:01:37;;;;;;;0.40;0.40;;;23.90;60.60;;;;;;6309933;22;19999;-74
2022/07/04 13:04:04;;;;;;;0.60;0.60;;;23.90;60.50;;;;;;6312391;22;20006;-74
2022/07/04 13:06:30;;;;;;;0.40;0.40;;;23.80;61.00;;;;;;6304920;22;20372;-72
2022/07/04 13:08:56;;;;;;;0.63;0.52;;;23.90;60.50;;;;;;6336969;22;20017;-72
2022/07/04 13:13:59;;;;;;;0.50;0.50;;;23.80;60.10;;;;;;6336284;22;20469;-72
2022/07/04 13:16:24;;;;;;;0.85;0.60;;;23.80;60.00;;;;;;6282294;22;19995;-72